DW2380 Paimio FI current weather conditions

sailwx.info

Wind from 360 at 1 knots gusting 6

Air temperature 13.3° C
Dewpoint 12.1° C

Last reported at 2015-Jul-07 20:43 UTC.
Time now 2015-Jul-07 21:56 UTC

Location: N 60°28' E 022°40'.
View on Google Maps.

See reports from other nearby stations

  
Tides and Currents Weather Stations Pressure Air Temp Water Temp Dewpoint Dewpoint Depression Visibility Wind Speed Wind Dir Waves Ship Positions
date/time (UTC)wind fromknots sea level pressurealtimeterstation pressurevisibilityair tempwater tempwave heightnotes
2015-Jul-07 20:43 360 1 gusting 6 13.3
2015-Jul-07 20:28 360 0 gusting 4 13.3
2015-Jul-07 20:13 360 2 gusting 5 13.3
2015-Jul-07 19:58 360 13.9
2015-Jul-07 19:43 360 0 gusting 3 14.4
2015-Jul-07 19:28 360 3 gusting 5 15.0
2015-Jul-07 19:13 360 3 gusting 8 15.0
2015-Jul-07 18:57 360 3 gusting 6 15.0
2015-Jul-07 18:42 360 4 gusting 9 15.6
2015-Jul-07 18:27 360 4 gusting 7 15.6
2015-Jul-07 18:12 360 5 gusting 9 15.6
2015-Jul-07 17:57 360 3 gusting 6 15.6
2015-Jul-07 17:42 360 2 gusting 7 15.0
2015-Jul-07 17:26 360 5 gusting 7 15.0
2015-Jul-07 17:11 360 3 gusting 7 15.0
2015-Jul-07 16:56 360 2 gusting 5 15.0
2015-Jul-07 16:41 360 2 gusting 6 14.4
2015-Jul-07 16:26 360 1 gusting 6 14.4
2015-Jul-07 16:11 360 5 gusting 18 14.4
2015-Jul-07 15:56 360 6 gusting 9 15.0
2015-Jul-07 15:41 360 2 gusting 8 15.0
2015-Jul-07 15:26 360 4 gusting 8 14.4
2015-Jul-07 15:11 360 5 gusting 7 14.4
2015-Jul-07 14:56 360 7 gusting 16 15.0
2015-Jul-07 14:42 360 5 gusting 12 15.0
2015-Jul-07 14:26 360 6 gusting 11 15.0
2015-Jul-07 14:11 360 6 gusting 14 15.6
2015-Jul-07 13:56 360 6 gusting 14 15.6
2015-Jul-07 13:39 360 8 gusting 15 15.6
2015-Jul-07 13:24 360 9 gusting 16 15.6
2015-Jul-07 13:09 360 8 gusting 15 15.6
2015-Jul-07 12:54 360 5 gusting 13 16.1
2015-Jul-07 12:39 360 5 gusting 13 15.6
2015-Jul-07 12:23 360 5 gusting 10 14.4
2015-Jul-07 12:08 360 5 gusting 12 14.4
2015-Jul-07 11:53 360 5 gusting 13 14.4
2015-Jul-07 11:38 360 5 gusting 11 14.4
2015-Jul-07 11:23 360 8 gusting 14 14.4
2015-Jul-07 11:08 360 9 gusting 15 14.4
2015-Jul-07 10:53 360 6 gusting 14 14.4
2015-Jul-07 10:38 360 10 gusting 19 13.9
2015-Jul-07 10:22 360 6 gusting 13 14.4
2015-Jul-07 10:07 360 6 gusting 14 14.4
2015-Jul-07 09:52 360 7 gusting 16 13.9
2015-Jul-07 09:37 360 9 gusting 21 13.9
2015-Jul-07 09:22 360 9 gusting 18 14.4
2015-Jul-07 09:06 360 6 gusting 12 14.4
2015-Jul-07 08:51 360 8 gusting 18 13.9
2015-Jul-07 08:36 360 6 gusting 15 14.4
2015-Jul-07 08:21 360 7 gusting 14 14.4
2015-Jul-07 08:07 360 7 gusting 15 14.4
2015-Jul-07 07:52 360 10 gusting 19 15.0
2015-Jul-07 07:36 360 12 gusting 19 14.4
2015-Jul-07 07:21 360 7 gusting 13 15.0
2015-Jul-07 07:06 360 7 gusting 15 15.0
2015-Jul-07 06:51 360 9 gusting 15 15.6
2015-Jul-07 06:36 360 5 gusting 11 15.0
2015-Jul-07 06:21 360 6 gusting 11 14.4
2015-Jul-07 06:06 360 7 gusting 14 14.4
2015-Jul-07 05:51 360 7 gusting 13 14.4
2015-Jul-07 05:34 360 5 gusting 9 14.4
2015-Jul-07 05:19 360 5 gusting 11 13.9
2015-Jul-07 05:04 360 6 gusting 11 13.9
2015-Jul-07 04:49 360 4 gusting 9 14.4
2015-Jul-07 04:34 360 4 gusting 8 14.4
2015-Jul-07 04:19 360 4 gusting 7 14.4
2015-Jul-07 04:03 360 5 gusting 7 14.4
2015-Jul-07 03:48 360 2 gusting 6 13.9
2015-Jul-07 03:33 360 2 gusting 6 13.9
2015-Jul-07 03:18 360 4 gusting 9 13.3
2015-Jul-07 03:03 360 2 gusting 6 13.3
2015-Jul-07 02:48 360 12.8
2015-Jul-07 02:33 360 12.8
2015-Jul-07 02:18 360 12.8
2015-Jul-07 02:03 360 12.8
2015-Jul-07 01:48 360 12.8
2015-Jul-07 01:33 360 0 gusting 3 12.2
2015-Jul-07 01:18 360 12.2
2015-Jul-07 01:03 360 1 gusting 4 12.2
2015-Jul-07 00:48 360 2 gusting 6 11.7
2015-Jul-07 00:33 360 2 gusting 6 11.7
2015-Jul-07 00:18 360 11.7
2015-Jul-07 00:03 360 11.1
2015-Jul-06 23:48 360 1 gusting 4 11.1
2015-Jul-06 23:33 360 0 gusting 6 11.1
2015-Jul-06 23:17 360 1 gusting 7 11.1
2015-Jul-06 23:02 360 11.1
2015-Jul-06 22:47 360 2 gusting 7 11.1
2015-Jul-06 22:32 360 5 gusting 10 11.1
2015-Jul-06 22:17 360 6 gusting 11 11.1
2015-Jul-06 22:02 360 5 gusting 9 11.1
2015-Jul-06 21:47 360 4 gusting 9 11.1
2015-Jul-06 21:32 360 6 gusting 13 11.1
2015-Jul-06 21:17 360 6 gusting 12 11.1
2015-Jul-06 21:02 360 3 gusting 7 11.1
2015-Jul-06 20:47 360 3 gusting 8 11.1
2015-Jul-06 20:32 360 4 gusting 9 11.7
2015-Jul-06 20:17 360 3 gusting 9 11.7
2015-Jul-06 20:02 360 5 gusting 10 12.2
2015-Jul-06 19:47 360 5 gusting 12 12.2
2015-Jul-06 19:32 360 6 gusting 13 12.8
2015-Jul-06 19:17 360 4 gusting 6 12.8
2015-Jul-06 19:01 360 3 gusting 9 12.8
2015-Jul-06 18:46 360 4 gusting 7 12.8
2015-Jul-06 18:31 360 4 gusting 10 13.3
2015-Jul-06 18:16 360 5 gusting 14 13.9
2015-Jul-06 18:01 360 6 gusting 9 14.4
2015-Jul-06 17:47 360 2 gusting 10 14.4
2015-Jul-06 17:31 360 3 gusting 9 15.0
2015-Jul-06 17:16 360 1 gusting 11 15.0
2015-Jul-06 17:01 360 4 gusting 11 15.6
2015-Jul-06 16:46 360 7 gusting 16 15.6
2015-Jul-06 16:29 360 9 gusting 16 16.1
2015-Jul-06 16:14 360 6 gusting 19 16.1
2015-Jul-06 15:59 360 9 gusting 22 16.1
2015-Jul-06 15:44 360 10 gusting 15 16.1
2015-Jul-06 15:29 360 12 gusting 19 16.1
2015-Jul-06 15:13 360 8 gusting 19 16.7
2015-Jul-06 14:58 360 13 gusting 21 16.7
2015-Jul-06 14:43 360 10 gusting 16 16.7
2015-Jul-06 14:28 360 6 gusting 14 17.2
2015-Jul-06 14:13 360 4 gusting 10 17.2
2015-Jul-06 13:58 360 6 gusting 17 17.8
2015-Jul-06 13:42 360 5 gusting 14 17.8
2015-Jul-06 13:27 360 8 gusting 15 17.8
2015-Jul-06 13:12 360 5 gusting 13 18.3
2015-Jul-06 12:57 360 6 gusting 17 18.3
2015-Jul-06 12:42 360 11 gusting 17 18.9
2015-Jul-06 12:27 360 8 gusting 13 19.4
2015-Jul-06 12:12 360 6 gusting 16 19.4
2015-Jul-06 11:56 360 8 gusting 16 19.4
2015-Jul-06 11:41 360 6 gusting 20 20.6
2015-Jul-06 11:26 360 8 gusting 16 21.1
2015-Jul-06 11:11 360 7 gusting 16 20.6
2015-Jul-06 10:56 360 9 gusting 19 21.1
2015-Jul-06 10:41 360 12 gusting 19 21.7
2015-Jul-06 10:26 360 7 gusting 15 21.7
2015-Jul-06 10:11 360 8 gusting 15 21.1
2015-Jul-06 09:56 360 7 gusting 16 19.4
2015-Jul-06 09:41 360 6 gusting 16 20.0
2015-Jul-06 09:26 360 10 gusting 17 20.0
2015-Jul-06 09:09 360 7 gusting 15 20.0
2015-Jul-06 08:54 360 7 gusting 19 20.6
2015-Jul-06 08:39 360 8 gusting 15 20.0
2015-Jul-06 08:24 360 6 gusting 15 19.4
2015-Jul-06 08:09 360 6 gusting 13 20.0
2015-Jul-06 07:54 360 6 gusting 16 19.4
2015-Jul-06 07:38 360 5 gusting 13 18.9
2015-Jul-06 07:23 360 7 gusting 15 18.9
2015-Jul-06 07:08 360 5 gusting 11 18.9
2015-Jul-06 06:53 360 8 gusting 14 18.3
2015-Jul-06 06:38 360 6 gusting 15 18.3
2015-Jul-06 06:23 360 3 gusting 15 18.3
2015-Jul-06 06:07 360 1 gusting 9 17.8
2015-Jul-06 05:52 360 2 gusting 8 17.2
2015-Jul-06 05:37 360 3 gusting 9 16.7
2015-Jul-06 05:22 360 3 gusting 9 16.7
2015-Jul-06 05:07 360 3 gusting 12 16.1
2015-Jul-06 04:51 360 3 gusting 13 16.1
2015-Jul-06 04:36 360 4 gusting 11 15.6
2015-Jul-06 04:21 360 2 gusting 6 15.0
2015-Jul-06 04:06 360 2 gusting 6 15.0
2015-Jul-06 03:51 360 0 gusting 6 14.4
2015-Jul-06 03:36 360 1 gusting 4 14.4
2015-Jul-06 03:21 360 0 gusting 3 13.9
2015-Jul-06 03:06 360 12.8
2015-Jul-06 02:51 360 13.3
2015-Jul-06 02:36 360 12.8
2015-Jul-06 02:21 360 12.8
2015-Jul-06 02:06 360 12.8
2015-Jul-06 01:51 360 12.8
2015-Jul-06 01:36 360 13.3
2015-Jul-06 01:21 360 13.3
2015-Jul-06 01:06 360 13.3
2015-Jul-06 00:51 360 0 gusting 3 12.8
2015-Jul-06 00:36 360 13.3
2015-Jul-06 00:21 360 0 gusting 2 12.2
2015-Jul-06 00:06 360 12.8
2015-Jul-05 23:51 360 12.2
2015-Jul-05 23:35 360 11.7
2015-Jul-05 23:20 360 11.1
2015-Jul-05 23:05 360 11.7
2015-Jul-05 22:50 360 12.2
2015-Jul-05 22:35 360 0 gusting 2 11.7
2015-Jul-05 22:20 360 11.7
2015-Jul-05 22:05 360 11.7
2015-Jul-05 21:50 360 11.7
2015-Jul-05 21:35 360 12.2
2015-Jul-05 21:20 360 0 gusting 2 12.2
2015-Jul-05 21:05 360 12.8